Home   Weather   Germany   Meiningen   Past weeks
Flag for Germany

Past Weather in Meiningen, Thuringia, Germany — Yesterday and Last 2 Weeks

Currently: 77 °F. Passing clouds. (Weather station: Erfurt-Bindersleben, Germany). See more current weather

Past Weather in Meiningen — Graph

°F

Meiningen Temperature Yesterday

Maximum temperature yesterday: 75 °F (at 3:20 pm)
Minimum temperature yesterday: 52 °F (at 5:20 am)
Average temperature yesterday: 65 °F

High & Low Weather Summary for the Past Weeks

 TemperatureHumidityPressure
High79 °F (Jul 12, 4:50 pm)100% (Jul 9, 3:50 am)30.24 "Hg (Jul 9, 3:50 am)
Low46 °F (Jul 21, 5:20 am)41% (Jul 22, 3:20 pm)29.74 "Hg (Jul 13, 4:20 pm)
Average65 °F77%30.05 "Hg
* Reported Jul 8 5:20 pm — Jul 23 5:50 pm, Meiningen. Weather by CustomWeather, © 2021

Note: Actual official high and low records may vary slightly from our data, if they occured in-between our weather recording intervals... More about our weather records

Meiningen Weather History for the Previous 24 Hours

Scroll right to see more
 ConditionsComfort  
Time TempWeatherWind HumidityBarometerVisibility
5:50 pm
Fri, Jul 23
77 °FPassing clouds.3 mph42%29.98 "HgN/A
5:20 pm77 °FPassing clouds.5 mph44%29.98 "HgN/A
4:50 pm77 °FSunny.6 mph44%29.98 "Hg10 mi
4:20 pm77 °FPassing clouds.6 mph44%30.01 "HgN/A
3:50 pm79 °FPassing clouds.3 mph45%30.01 "HgN/A
3:20 pm79 °FSunny.2 mph45%30.01 "Hg10 mi
2:50 pm77 °FPassing clouds.5 mph44%30.01 "HgN/A
2:20 pm77 °FSunny.3 mph44%30.04 "Hg10 mi
1:50 pm75 °FPassing clouds.5 mph47%30.04 "HgN/A
1:20 pm73 °FPassing clouds.5 mph47%30.04 "HgN/A
12:50 pm73 °FPassing clouds.2 mph50%30.04 "HgN/A
12:20 pm73 °FPassing clouds.3 mph50%30.07 "HgN/A
11:50 am73 °FPassing clouds.3 mph53%30.07 "HgN/A
11:20 am72 °FPassing clouds.5 mph53%30.07 "HgN/A
10:50 am72 °FPassing clouds.3 mph53%30.07 "HgN/A
10:20 am70 °FPassing clouds.3 mph60%30.07 "HgN/A
9:50 am68 °FSunny.2 mph64%30.07 "Hg10 mi
9:20 am66 °FSunny.2 mph68%30.07 "Hg10 mi
7:20 am59 °FSunny.1 mph82%30.07 "Hg10 mi
6:50 am55 °FSunny.3 mph94%30.07 "Hg10 mi
6:20 am55 °FSunny.5 mph88%30.07 "Hg10 mi
5:50 am55 °FSunny.3 mph88%30.07 "Hg10 mi
5:20 am54 °FClear.6 mph94%30.07 "Hg10 mi
4:50 am55 °FClear.5 mph88%30.09 "Hg10 mi
4:20 am57 °FClear.6 mph88%30.09 "Hg10 mi
3:50 am57 °FClear.6 mph88%30.09 "Hg10 mi
3:20 am57 °FClear.6 mph88%30.09 "Hg10 mi
2:50 am57 °FClear.5 mph88%30.09 "Hg10 mi
2:20 am59 °FClear.5 mph82%30.09 "Hg10 mi
1:50 am61 °FClear.3 mph72%30.09 "Hg10 mi
1:20 am61 °FClear.2 mph72%30.09 "Hg10 mi
12:50 am59 °FClear.5 mph77%30.09 "Hg10 mi
12:20 am61 °FClear.3 mph72%30.09 "Hg10 mi
11:50 pm
Thu, Jul 22
63 °FClear.5 mph68%30.09 "Hg10 mi
11:20 pm66 °FClear.3 mph60%30.09 "Hg10 mi
10:50 pm66 °FClear.2 mph60%30.12 "Hg10 mi
10:20 pm66 °FClear.2 mph60%30.12 "Hg10 mi
9:50 pm66 °FClear.2 mph64%30.12 "Hg10 mi
9:20 pm66 °FClear.3 mph64%30.12 "Hg10 mi
8:50 pm66 °FPassing clouds.5 mph64%30.09 "HgN/A
8:20 pm70 °FSunny.6 mph57%30.09 "Hg10 mi
7:50 pm70 °FPassing clouds.6 mph53%30.09 "HgN/A
7:20 pm72 °FSunny.6 mph50%30.09 "Hg10 mi
Weather by CustomWeather, © 2021

See weather overview